PWSweather.com
Personal Weather Stations
Station Observations
KB2SBX
Sugarloaf, Sugarloaf, PA 18249

SugarloafSugarloaf, PA 18249

Lat: 41.0126685, Lon: -76.1082041

Elevation: 1030

Station Type: WS-2080

http://sugarloafpaweather.webng.com/weather.shtml

Latest ConditionsUpdated 9:50:00 PM EDT Friday, Jul 29, 2016
Currently Today's Max Today's Min Today's Average
Temperature 74.3°F23.5°C 87.1°F30.6°C 67.1°F19.5°C 75.2°F24.0°C
Dew Point 68.1°F20.1°C 73.8°F23.2°C 65.3°F18.5°C 68.8°F20.4°C
Winds Calm Calm 3.8 mph SW6.1 kmh SW - 0.4 mph 0.6 kmh
Wind Gusts -- 7.6 mph12.2 kmh - -
Humidity 81% 100% 51% 83%
Pressure 29.81 in1009.5 mb 29.81 in1009.5 mb 29.71 in1006.1 mb -
Precipitation - 0.05 in1.3 mm - -
Hour Temp Dew Point Humidity Winds Wind Gusts Pressure Precip Precip Rate Daily Precip Total
09:50 PM 74.3°F23.5°C 68.1°F20.1°C 81% Calm Calm -- 29.81 in1009.5 mb 0.00 in0.0 mm 0.00 in0.0 mm 0.05 in1.3 mm
09:40 PM 74.3°F23.5°C 68.1°F20.1°C 81% Calm Calm -- 29.80 in1009.1 mb 0.00 in0.0 mm 0.00 in0.0 mm 0.05 in1.3 mm
09:30 PM 74.7°F23.7°C 68.5°F20.3°C 81% Calm Calm 0.7 mph1.1 kmh 29.80 in1009.1 mb 0.00 in0.0 mm 0.00 in0.0 mm 0.05 in1.3 mm
09:20 PM 74.8°F23.8°C 68.7°F20.4°C 81% Calm Calm 1.6 mph2.6 kmh 29.80 in1009.1 mb 0.00 in0.0 mm 0.00 in0.0 mm 0.05 in1.3 mm
09:10 PM 74.8°F23.8°C 68.3°F20.2°C 80% Calm Calm 0.7 mph1.1 kmh 29.80 in1009.1 mb 0.00 in0.0 mm 0.00 in0.0 mm 0.05 in1.3 mm
09:00 PM 75.0°F23.9°C 68.5°F20.3°C 80% Calm Calm 1.6 mph2.6 kmh 29.80 in1009.1 mb 0.00 in0.0 mm 0.00 in0.0 mm 0.05 in1.3 mm
08:50 PM 75.2°F24.0°C 68.3°F20.2°C 79% Calm Calm 0.7 mph1.1 kmh 29.79 in1008.8 mb 0.00 in0.0 mm 0.00 in0.0 mm 0.05 in1.3 mm
08:40 PM 75.4°F24.1°C 68.5°F20.3°C 79% Calm Calm 0.7 mph1.1 kmh 29.79 in1008.8 mb 0.00 in0.0 mm 0.00 in0.0 mm 0.05 in1.3 mm
08:30 PM 75.7°F24.3°C 68.4°F20.2°C 78% Calm Calm 1.6 mph2.6 kmh 29.79 in1008.8 mb 0.00 in0.0 mm 0.00 in0.0 mm 0.05 in1.3 mm
08:20 PM 75.9°F24.4°C 68.6°F20.3°C 78% Calm Calm 1.6 mph2.6 kmh 29.79 in1008.8 mb 0.00 in0.0 mm 0.00 in0.0 mm 0.05 in1.3 mm
08:10 PM 76.5°F24.7°C 69.1°F20.6°C 78% 0.7 mph N1.1 kmh N 1.6 mph2.6 kmh 29.78 in1008.5 mb 0.00 in0.0 mm 0.00 in0.0 mm 0.05 in1.3 mm
08:00 PM 77.0°F25.0°C 68.9°F20.5°C 76% Calm Calm 1.6 mph2.6 kmh 29.78 in1008.5 mb 0.00 in0.0 mm 0.00 in0.0 mm 0.05 in1.3 mm
07:50 PM 77.5°F25.3°C 69.4°F20.8°C 76% 0.7 mph NNW1.1 kmh NNW 1.6 mph2.6 kmh 29.78 in1008.5 mb 0.00 in0.0 mm 0.00 in0.0 mm 0.05 in1.3 mm
07:40 PM 78.3°F25.7°C 70.1°F21.2°C 76% Calm Calm -- 29.78 in1008.5 mb 0.00 in0.0 mm 0.00 in0.0 mm 0.05 in1.3 mm
07:30 PM 78.6°F25.9°C 69.7°F20.9°C 74% Calm Calm -- 29.77 in1008.1 mb 0.00 in0.0 mm 0.00 in0.0 mm 0.05 in1.3 mm
07:20 PM 79.2°F26.2°C 69.8°F21.0°C 73% Calm Calm 1.6 mph2.6 kmh 29.77 in1008.1 mb 0.00 in0.0 mm 0.00 in0.0 mm 0.05 in1.3 mm
07:10 PM 79.9°F26.6°C 70.1°F21.2°C 72% 0.7 mph NNE1.1 kmh NNE 1.6 mph2.6 kmh 29.77 in1008.1 mb 0.00 in0.0 mm 0.00 in0.0 mm 0.05 in1.3 mm
07:00 PM 80.4°F26.9°C 69.4°F20.8°C 69% Calm Calm 0.7 mph1.1 kmh 29.76 in1007.8 mb 0.00 in0.0 mm 0.00 in0.0 mm 0.05 in1.3 mm
06:50 PM 81.0°F27.2°C 68.1°F20.1°C 65% Calm Calm -- 29.76 in1007.8 mb 0.00 in0.0 mm 0.00 in0.0 mm 0.05 in1.3 mm
06:40 PM 81.3°F27.4°C 69.4°F20.8°C 67% Calm Calm 0.7 mph1.1 kmh 29.76 in1007.8 mb 0.00 in0.0 mm 0.00 in0.0 mm 0.05 in1.3 mm
06:30 PM 81.7°F27.6°C 68.8°F20.4°C 65% Calm Calm 3.1 mph5.0 kmh 29.76 in1007.8 mb 0.00 in0.0 mm 0.00 in0.0 mm 0.05 in1.3 mm
06:20 PM 82.2°F27.9°C 68.9°F20.5°C 64% 1.6 mph N2.6 kmh N 3.8 mph6.1 kmh 29.76 in1007.8 mb 0.00 in0.0 mm 0.00 in0.0 mm 0.05 in1.3 mm
06:10 PM 82.9°F28.3°C 68.6°F20.3°C 62% Calm Calm 0.7 mph1.1 kmh 29.76 in1007.8 mb 0.00 in0.0 mm 0.00 in0.0 mm 0.05 in1.3 mm
06:00 PM 83.7°F28.7°C 66.9°F19.4°C 57% Calm Calm 1.6 mph2.6 kmh 29.75 in1007.5 mb 0.00 in0.0 mm 0.00 in0.0 mm 0.05 in1.3 mm
05:50 PM 84.2°F29.0°C 65.3°F18.5°C 53% Calm Calm 4.5 mph7.2 kmh 29.75 in1007.5 mb 0.00 in0.0 mm 0.00 in0.0 mm 0.05 in1.3 mm
05:40 PM 85.1°F29.5°C 66.6°F19.2°C 54% Calm Calm 3.8 mph6.1 kmh 29.75 in1007.5 mb 0.00 in0.0 mm 0.00 in0.0 mm 0.05 in1.3 mm
05:30 PM 85.8°F29.9°C 68.9°F20.5°C 57% 0.7 mph NW1.1 kmh NW 3.1 mph5.0 kmh 29.75 in1007.5 mb 0.00 in0.0 mm 0.00 in0.0 mm 0.05 in1.3 mm
05:20 PM 86.4°F30.2°C 67.8°F19.9°C 54% 0.7 mph W1.1 kmh W 3.1 mph5.0 kmh 29.75 in1007.5 mb 0.00 in0.0 mm 0.00 in0.0 mm 0.05 in1.3 mm
05:10 PM 86.7°F30.4°C 67.6°F19.8°C 53% 1.6 mph NW2.6 kmh NW 3.1 mph5.0 kmh 29.75 in1007.5 mb 0.00 in0.0 mm 0.00 in0.0 mm 0.05 in1.3 mm
05:00 PM 87.1°F30.6°C 70.6°F21.4°C 58% Calm Calm 5.4 mph8.7 kmh 29.74 in1007.1 mb 0.00 in0.0 mm 0.00 in0.0 mm 0.05 in1.3 mm
04:50 PM 86.9°F30.5°C 67.8°F19.9°C 53% 3.1 mph SW5.0 kmh SW 5.4 mph8.7 kmh 29.73 in1006.8 mb 0.00 in0.0 mm 0.00 in0.0 mm 0.05 in1.3 mm
04:40 PM 86.9°F30.5°C 68.8°F20.4°C 55% 0.7 mph N1.1 kmh N 4.5 mph7.2 kmh 29.74 in1007.1 mb 0.00 in0.0 mm 0.00 in0.0 mm 0.05 in1.3 mm
04:30 PM 86.2°F30.1°C 66.0°F18.9°C 51% 1.6 mph N2.6 kmh N 4.5 mph7.2 kmh 29.74 in1007.1 mb 0.00 in0.0 mm 0.00 in0.0 mm 0.05 in1.3 mm
04:20 PM 85.8°F29.9°C 66.8°F19.3°C 53% Calm Calm 2.2 mph3.5 kmh 29.74 in1007.1 mb 0.00 in0.0 mm 0.00 in0.0 mm 0.05 in1.3 mm
04:10 PM 85.1°F29.5°C 66.1°F18.9°C 53% 0.7 mph SSW1.1 kmh SSW 1.6 mph2.6 kmh 29.73 in1006.8 mb 0.00 in0.0 mm 0.00 in0.0 mm 0.05 in1.3 mm
04:00 PM 85.5°F29.7°C 68.0°F20.0°C 56% 0.7 mph WSW1.1 kmh WSW 3.1 mph5.0 kmh 29.74 in1007.1 mb 0.00 in0.0 mm 0.00 in0.0 mm 0.05 in1.3 mm
03:50 PM 85.3°F29.6°C 66.3°F19.1°C 53% 1.6 mph NE2.6 kmh NE 3.8 mph6.1 kmh 29.74 in1007.1 mb 0.00 in0.0 mm 0.00 in0.0 mm 0.05 in1.3 mm
03:40 PM 84.9°F29.4°C 66.5°F19.2°C 54% 1.6 mph WSW2.6 kmh WSW 3.8 mph6.1 kmh 29.74 in1007.1 mb 0.00 in0.0 mm 0.00 in0.0 mm 0.05 in1.3 mm
03:30 PM 84.6°F29.2°C 67.2°F19.6°C 56% 0.7 mph N1.1 kmh N 3.1 mph5.0 kmh 29.74 in1007.1 mb 0.00 in0.0 mm 0.00 in0.0 mm 0.05 in1.3 mm
03:20 PM 83.7°F28.7°C 67.9°F19.9°C 59% 0.7 mph SW1.1 kmh SW 2.2 mph3.5 kmh 29.74 in1007.1 mb 0.00 in0.0 mm 0.00 in0.0 mm 0.05 in1.3 mm
03:10 PM 84.0°F28.9°C 68.7°F20.4°C 60% Calm Calm 3.8 mph6.1 kmh 29.75 in1007.5 mb 0.00 in0.0 mm 0.00 in0.0 mm 0.05 in1.3 mm
03:00 PM 84.6°F29.2°C 66.7°F19.3°C 55% 1.6 mph WNW2.6 kmh WNW 7.6 mph12.2 kmh 29.75 in1007.5 mb 0.00 in0.0 mm 0.00 in0.0 mm 0.05 in1.3 mm
02:50 PM 85.5°F29.7°C 68.5°F20.3°C 57% 1.6 mph WNW2.6 kmh WNW 4.5 mph7.2 kmh 29.75 in1007.5 mb 0.00 in0.0 mm 0.00 in0.0 mm 0.05 in1.3 mm
02:40 PM 86.4°F30.2°C 67.8°F19.9°C 54% 1.6 mph NE2.6 kmh NE 6.0 mph9.7 kmh 29.75 in1007.5 mb 0.00 in0.0 mm 0.00 in0.0 mm 0.05 in1.3 mm
02:30 PM 86.0°F30.0°C 67.5°F19.7°C 54% 1.6 mph WSW2.6 kmh WSW 3.8 mph6.1 kmh 29.75 in1007.5 mb 0.00 in0.0 mm 0.00 in0.0 mm 0.05 in1.3 mm
02:20 PM 86.4°F30.2°C 66.2°F19.0°C 51% 2.2 mph NW3.5 kmh NW 6.0 mph9.7 kmh 29.75 in1007.5 mb 0.00 in0.0 mm 0.00 in0.0 mm 0.05 in1.3 mm
02:10 PM 86.9°F30.5°C 68.8°F20.4°C 55% 0.7 mph SW1.1 kmh SW 3.1 mph5.0 kmh 29.75 in1007.5 mb 0.00 in0.0 mm 0.00 in0.0 mm 0.05 in1.3 mm
02:00 PM 86.4°F30.2°C 70.9°F21.6°C 60% 0.7 mph E1.1 kmh E 3.8 mph6.1 kmh 29.75 in1007.5 mb 0.00 in0.0 mm 0.00 in0.0 mm 0.05 in1.3 mm
01:50 PM 85.1°F29.5°C 70.2°F21.2°C 61% 0.7 mph ENE1.1 kmh ENE 6.0 mph9.7 kmh 29.75 in1007.5 mb 0.00 in0.0 mm 0.00 in0.0 mm 0.05 in1.3 mm
01:40 PM 84.6°F29.2°C 70.6°F21.4°C 63% 3.8 mph SW6.1 kmh SW 6.0 mph9.7 kmh 29.75 in1007.5 mb 0.00 in0.0 mm 0.00 in0.0 mm 0.05 in1.3 mm
01:30 PM 83.7°F28.7°C 69.8°F21.0°C 63% 1.6 mph N2.6 kmh N 6.9 mph11.1 kmh 29.75 in1007.5 mb 0.00 in0.0 mm 0.00 in0.0 mm 0.05 in1.3 mm
01:20 PM 83.1°F28.4°C 70.2°F21.2°C 65% 2.2 mph NW3.5 kmh NW 5.4 mph8.7 kmh 29.75 in1007.5 mb 0.00 in0.0 mm 0.00 in0.0 mm 0.05 in1.3 mm
01:10 PM 83.5°F28.6°C 71.0°F21.7°C 66% 2.2 mph NW3.5 kmh NW 6.9 mph11.1 kmh 29.75 in1007.5 mb 0.00 in0.0 mm 0.00 in0.0 mm 0.05 in1.3 mm
01:00 PM 82.9°F28.3°C 71.3°F21.8°C 68% 0.7 mph W1.1 kmh W 5.4 mph8.7 kmh 29.75 in1007.5 mb 0.00 in0.0 mm 0.00 in0.0 mm 0.05 in1.3 mm
12:50 PM 82.8°F28.2°C 71.6°F22.0°C 69% 2.2 mph NW3.5 kmh NW 3.8 mph6.1 kmh 29.75 in1007.5 mb 0.00 in0.0 mm 0.00 in0.0 mm 0.05 in1.3 mm
12:40 PM 82.4°F28.0°C 71.3°F21.8°C 69% 2.2 mph WSW3.5 kmh WSW 4.5 mph7.2 kmh 29.75 in1007.5 mb 0.00 in0.0 mm 0.00 in0.0 mm 0.05 in1.3 mm
12:30 PM 81.5°F27.5°C 70.8°F21.6°C 70% 0.7 mph N1.1 kmh N 6.0 mph9.7 kmh 29.75 in1007.5 mb 0.00 in0.0 mm 0.00 in0.0 mm 0.05 in1.3 mm
12:20 PM 81.3°F27.4°C 71.9°F22.2°C 73% 1.6 mph NE2.6 kmh NE 3.1 mph5.0 kmh 29.75 in1007.5 mb 0.00 in0.0 mm 0.00 in0.0 mm 0.05 in1.3 mm
12:10 PM 80.8°F27.1°C 70.6°F21.4°C 71% 0.7 mph NE1.1 kmh NE 4.5 mph7.2 kmh 29.76 in1007.8 mb 0.00 in0.0 mm 0.00 in0.0 mm 0.05 in1.3 mm
12:00 PM 80.8°F27.1°C 73.0°F22.8°C 77% 1.6 mph ENE2.6 kmh ENE 3.1 mph5.0 kmh 29.76 in1007.8 mb 0.00 in0.0 mm 0.00 in0.0 mm 0.05 in1.3 mm
11:50 AM 79.2°F26.2°C 72.9°F22.7°C 81% 0.7 mph ESE1.1 kmh ESE 6.0 mph9.7 kmh 29.76 in1007.8 mb 0.00 in0.0 mm 0.00 in0.0 mm 0.05 in1.3 mm
11:40 AM 77.4°F25.2°C 72.2°F22.3°C 84% 2.2 mph E3.5 kmh E 5.4 mph8.7 kmh 29.77 in1008.1 mb 0.00 in0.0 mm 0.00 in0.0 mm 0.05 in1.3 mm
11:30 AM 77.0°F25.0°C 73.2°F22.9°C 88% Calm Calm 3.8 mph6.1 kmh 29.77 in1008.1 mb 0.00 in0.0 mm 0.00 in0.0 mm 0.05 in1.3 mm
11:20 AM 76.3°F24.6°C 73.8°F23.2°C 92% 2.2 mph ESE3.5 kmh ESE 3.8 mph6.1 kmh 29.77 in1008.1 mb 0.00 in0.0 mm 0.00 in0.0 mm 0.05 in1.3 mm
11:10 AM 74.1°F23.4°C 72.0°F22.2°C 93% 0.7 mph WNW1.1 kmh WNW 3.8 mph6.1 kmh 29.77 in1008.1 mb 0.00 in0.0 mm 0.00 in0.0 mm 0.05 in1.3 mm
11:00 AM 73.8°F23.2°C 72.0°F22.2°C 94% Calm Calm 1.6 mph2.6 kmh 29.77 in1008.1 mb 0.00 in0.0 mm 0.00 in0.0 mm 0.05 in1.3 mm
10:50 AM 73.2°F22.9°C 71.4°F21.9°C 94% Calm Calm 1.6 mph2.6 kmh 29.78 in1008.5 mb 0.00 in0.0 mm 0.00 in0.0 mm 0.05 in1.3 mm
10:40 AM 73.2°F22.9°C 71.7°F22.1°C 95% Calm Calm 3.8 mph6.1 kmh 29.78 in1008.5 mb 0.00 in0.0 mm 0.00 in0.0 mm 0.05 in1.3 mm
10:30 AM 72.9°F22.7°C 71.7°F22.1°C 96% Calm Calm 3.8 mph6.1 kmh 29.78 in1008.5 mb 0.00 in0.0 mm 0.00 in0.0 mm 0.05 in1.3 mm
10:20 AM 72.5°F22.5°C 71.6°F22.0°C 97% 0.7 mph SE1.1 kmh SE 2.2 mph3.5 kmh 29.78 in1008.5 mb 0.00 in0.0 mm 0.00 in0.0 mm 0.05 in1.3 mm
10:10 AM 71.8°F22.1°C 70.9°F21.6°C 97% Calm Calm 1.6 mph2.6 kmh 29.77 in1008.1 mb 0.00 in0.0 mm 0.00 in0.0 mm 0.05 in1.3 mm
10:00 AM 71.6°F22.0°C 70.7°F21.5°C 97% Calm Calm 0.7 mph1.1 kmh 29.77 in1008.1 mb 0.00 in0.0 mm 0.00 in0.0 mm 0.05 in1.3 mm
09:50 AM 71.1°F21.7°C 71.1°F21.7°C 100% Calm Calm 1.6 mph2.6 kmh 29.78 in1008.5 mb 0.00 in0.0 mm 0.00 in0.0 mm 0.05 in1.3 mm
09:40 AM 70.7°F21.5°C 70.7°F21.5°C 100% Calm Calm 3.1 mph5.0 kmh 29.77 in1008.1 mb 0.00 in0.0 mm 0.00 in0.0 mm 0.05 in1.3 mm
09:30 AM 70.2°F21.2°C 70.2°F21.2°C 100% 1.6 mph ESE2.6 kmh ESE 2.2 mph3.5 kmh 29.77 in1008.1 mb 0.00 in0.0 mm 0.00 in0.0 mm 0.05 in1.3 mm
09:20 AM 70.0°F21.1°C 70.0°F21.1°C 100% Calm Calm 1.6 mph2.6 kmh 29.77 in1008.1 mb 0.00 in0.0 mm 0.00 in0.0 mm 0.05 in1.3 mm
09:10 AM 69.8°F21.0°C 69.8°F21.0°C 100% 0.7 mph SE1.1 kmh SE 2.2 mph3.5 kmh 29.77 in1008.1 mb 0.00 in0.0 mm 0.00 in0.0 mm 0.05 in1.3 mm
09:00 AM 69.8°F21.0°C 69.8°F21.0°C 100% Calm Calm 1.6 mph2.6 kmh 29.77 in1008.1 mb 0.00 in0.0 mm 0.00 in0.0 mm 0.05 in1.3 mm
08:50 AM 69.4°F20.8°C 69.2°F20.7°C 99% Calm Calm 2.2 mph3.5 kmh 29.77 in1008.1 mb 0.00 in0.0 mm 0.00 in0.0 mm 0.05 in1.3 mm
08:40 AM 69.1°F20.6°C 68.8°F20.4°C 99% Calm Calm 1.6 mph2.6 kmh 29.77 in1008.1 mb 0.00 in0.0 mm 0.00 in0.0 mm 0.05 in1.3 mm
08:30 AM 68.9°F20.5°C 68.6°F20.3°C 99% Calm Calm 1.6 mph2.6 kmh 29.77 in1008.1 mb 0.00 in0.0 mm 0.00 in0.0 mm 0.05 in1.3 mm
08:20 AM 68.7°F20.4°C 68.5°F20.3°C 99% Calm Calm 1.6 mph2.6 kmh 29.76 in1007.8 mb 0.00 in0.0 mm 0.00 in0.0 mm 0.05 in1.3 mm
08:10 AM 68.5°F20.3°C 68.3°F20.2°C 99% Calm Calm 0.7 mph1.1 kmh 29.77 in1008.1 mb 0.00 in0.0 mm 0.00 in0.0 mm 0.05 in1.3 mm
08:00 AM 68.7°F20.4°C 68.5°F20.3°C 99% Calm Calm 1.6 mph2.6 kmh 29.76 in1007.8 mb 0.00 in0.0 mm 0.00 in0.0 mm 0.05 in1.3 mm
07:50 AM 68.4°F20.2°C 68.1°F20.1°C 99% Calm Calm 2.2 mph3.5 kmh 29.76 in1007.8 mb 0.00 in0.0 mm 0.00 in0.0 mm 0.05 in1.3 mm
07:40 AM 68.2°F20.1°C 67.9°F19.9°C 99% Calm Calm 1.6 mph2.6 kmh 29.76 in1007.8 mb 0.00 in0.0 mm 0.00 in0.0 mm 0.05 in1.3 mm
07:30 AM 68.2°F20.1°C 67.9°F19.9°C 99% Calm Calm 0.7 mph1.1 kmh 29.76 in1007.8 mb 0.00 in0.0 mm 0.00 in0.0 mm 0.05 in1.3 mm
07:20 AM 68.0°F20.0°C 67.7°F19.8°C 99% Calm Calm -- 29.76 in1007.8 mb 0.00 in0.0 mm 0.00 in0.0 mm 0.05 in1.3 mm
07:10 AM 68.0°F20.0°C 67.7°F19.8°C 99% Calm Calm -- 29.75 in1007.5 mb 0.00 in0.0 mm 0.00 in0.0 mm 0.05 in1.3 mm
07:00 AM 67.8°F19.9°C 67.6°F19.8°C 99% Calm Calm -- 29.75 in1007.5 mb 0.00 in0.0 mm 0.00 in0.0 mm 0.05 in1.3 mm
06:50 AM 67.6°F19.8°C 67.4°F19.7°C 99% Calm Calm 0.7 mph1.1 kmh 29.75 in1007.5 mb 0.00 in0.0 mm 0.00 in0.0 mm 0.05 in1.3 mm
06:40 AM 67.5°F19.7°C 67.2°F19.6°C 99% Calm Calm 1.6 mph2.6 kmh 29.75 in1007.5 mb 0.00 in0.0 mm 0.00 in0.0 mm 0.05 in1.3 mm
06:30 AM 67.5°F19.7°C 67.2°F19.6°C 99% Calm Calm 2.2 mph3.5 kmh 29.74 in1007.1 mb 0.00 in0.0 mm 0.00 in0.0 mm 0.05 in1.3 mm
06:20 AM 67.5°F19.7°C 67.2°F19.6°C 99% Calm Calm 0.7 mph1.1 kmh 29.73 in1006.8 mb 0.00 in0.0 mm 0.00 in0.0 mm 0.05 in1.3 mm
06:10 AM 67.3°F19.6°C 67.0°F19.4°C 99% Calm Calm 0.7 mph1.1 kmh 29.73 in1006.8 mb 0.01 in0.3 mm 0.00 in0.0 mm 0.05 in1.3 mm
06:00 AM 67.1°F19.5°C 66.8°F19.3°C 99% Calm Calm -- 29.73 in1006.8 mb 0.01 in0.3 mm 0.00 in0.0 mm 0.05 in1.3 mm
05:50 AM 67.3°F19.6°C 67.0°F19.4°C 99% Calm Calm -- 29.72 in1006.4 mb 0.01 in0.3 mm 0.00 in0.0 mm 0.05 in1.3 mm
05:40 AM 67.5°F19.7°C 67.2°F19.6°C 99% Calm Calm -- 29.72 in1006.4 mb 0.01 in0.3 mm 0.00 in0.0 mm 0.05 in1.3 mm
05:30 AM 67.6°F19.8°C 67.4°F19.7°C 99% Calm Calm -- 29.71 in1006.1 mb 0.01 in0.3 mm 0.00 in0.0 mm 0.05 in1.3 mm
05:20 AM 67.8°F19.9°C 67.6°F19.8°C 99% Calm Calm 1.6 mph2.6 kmh 29.71 in1006.1 mb 0.01 in0.3 mm 0.06 in1.5 mm 0.05 in1.3 mm
05:10 AM 67.8°F19.9°C 67.6°F19.8°C 99% Calm Calm 1.6 mph2.6 kmh 29.72 in1006.4 mb 0.00 in0.0 mm 0.00 in0.0 mm 0.04 in1.0 mm
05:00 AM 68.0°F20.0°C 67.7°F19.8°C 99% Calm Calm -- 29.72 in1006.4 mb 0.00 in0.0 mm 0.00 in0.0 mm 0.04 in1.0 mm
04:50 AM 68.0°F20.0°C 67.7°F19.8°C 99% Calm Calm 0.7 mph1.1 kmh 29.72 in1006.4 mb 0.00 in0.0 mm 0.00 in0.0 mm 0.04 in1.0 mm
04:40 AM 68.0°F20.0°C 67.7°F19.8°C 99% Calm Calm 0.7 mph1.1 kmh 29.72 in1006.4 mb 0.00 in0.0 mm 0.00 in0.0 mm 0.04 in1.0 mm
04:30 AM 68.2°F20.1°C 67.9°F19.9°C 99% Calm Calm -- 29.72 in1006.4 mb 0.00 in0.0 mm 0.00 in0.0 mm 0.04 in1.0 mm
04:20 AM 68.2°F20.1°C 67.9°F19.9°C 99% Calm Calm -- 29.72 in1006.4 mb 0.01 in0.3 mm 0.00 in0.0 mm 0.04 in1.0 mm
04:10 AM 68.2°F20.1°C 67.9°F19.9°C 99% Calm Calm -- 29.72 in1006.4 mb 0.01 in0.3 mm 0.00 in0.0 mm 0.04 in1.0 mm
04:00 AM 68.2°F20.1°C 67.9°F19.9°C 99% Calm Calm -- 29.72 in1006.4 mb 0.01 in0.3 mm 0.00 in0.0 mm 0.04 in1.0 mm
03:50 AM 68.2°F20.1°C 67.9°F19.9°C 99% Calm Calm -- 29.73 in1006.8 mb 0.02 in0.5 mm 0.00 in0.0 mm 0.04 in1.0 mm
03:40 AM 68.4°F20.2°C 68.1°F20.1°C 99% Calm Calm -- 29.73 in1006.8 mb 0.03 in0.8 mm 0.00 in0.0 mm 0.04 in1.0 mm
03:30 AM 68.4°F20.2°C 68.1°F20.1°C 99% Calm Calm -- 29.74 in1007.1 mb 0.03 in0.8 mm 0.00 in0.0 mm 0.04 in1.0 mm
03:20 AM 68.4°F20.2°C 68.1°F20.1°C 99% Calm Calm -- 29.75 in1007.5 mb 0.03 in0.8 mm 0.00 in0.0 mm 0.04 in1.0 mm
03:10 AM 68.4°F20.2°C 68.1°F20.1°C 99% Calm Calm -- 29.75 in1007.5 mb 0.03 in0.8 mm 0.00 in0.0 mm 0.04 in1.0 mm
03:00 AM 68.4°F20.2°C 68.1°F20.1°C 99% Calm Calm -- 29.75 in1007.5 mb 0.03 in0.8 mm 0.00 in0.0 mm 0.03 in0.8 mm
02:50 AM 68.4°F20.2°C 68.4°F20.2°C 100% Calm Calm -- 29.76 in1007.8 mb 0.03 in0.8 mm 0.06 in1.5 mm 0.02 in0.5 mm
02:40 AM 68.5°F20.3°C 68.6°F20.3°C 100% Calm Calm -- 29.77 in1008.1 mb 0.02 in0.5 mm 0.00 in0.0 mm 0.02 in0.5 mm
02:30 AM 68.5°F20.3°C 68.6°F20.3°C 100% Calm Calm -- 29.77 in1008.1 mb 0.02 in0.5 mm 0.06 in1.5 mm 0.02 in0.5 mm
02:20 AM 68.5°F20.3°C 68.6°F20.3°C 100% Calm Calm -- 29.77 in1008.1 mb 0.01 in0.3 mm 0.00 in0.0 mm 0.01 in0.3 mm
02:10 AM 68.7°F20.4°C 68.8°F20.4°C 100% Calm Calm -- 29.77 in1008.1 mb 0.01 in0.3 mm 0.00 in0.0 mm 0.01 in0.3 mm
02:00 AM 68.7°F20.4°C 67.9°F19.9°C 97% Calm Calm -- 29.77 in1008.1 mb 0.01 in0.3 mm 0.01 in0.3 mm 0.01 in0.3 mm
01:50 AM 68.7°F20.4°C 67.9°F19.9°C 97% Calm Calm -- 29.77 in1008.1 mb 0.00 in0.0 mm 0.00 in0.0 mm 0.00 in0.0 mm
01:40 AM 68.7°F20.4°C 67.9°F19.9°C 97% Calm Calm -- 29.77 in1008.1 mb 0.00 in0.0 mm 0.00 in0.0 mm 0.00 in0.0 mm
01:30 AM 68.7°F20.4°C 67.9°F19.9°C 97% Calm Calm -- 29.76 in1007.8 mb 0.00 in0.0 mm 0.00 in0.0 mm 0.00 in0.0 mm
01:20 AM 68.9°F20.5°C 68.0°F20.0°C 97% Calm Calm -- 29.76 in1007.8 mb 0.00 in0.0 mm 0.00 in0.0 mm 0.00 in0.0 mm
01:10 AM 68.9°F20.5°C 67.7°F19.8°C 96% Calm Calm -- 29.76 in1007.8 mb 0.00 in0.0 mm 0.00 in0.0 mm 0.00 in0.0 mm
01:00 AM 68.9°F20.5°C 67.7°F19.8°C 96% Calm Calm -- 29.76 in1007.8 mb 0.00 in0.0 mm 0.00 in0.0 mm 0.00 in0.0 mm
12:50 AM 68.9°F20.5°C 67.7°F19.8°C 96% Calm Calm -- 29.77 in1008.1 mb 0.00 in0.0 mm 0.00 in0.0 mm 0.00 in0.0 mm
12:40 AM 69.1°F20.6°C 67.6°F19.8°C 95% Calm Calm -- 29.76 in1007.8 mb 0.00 in0.0 mm 0.00 in0.0 mm 0.00 in0.0 mm
12:30 AM 69.3°F20.7°C 67.8°F19.9°C 95% Calm Calm -- 29.77 in1008.1 mb 0.00 in0.0 mm 0.00 in0.0 mm 0.00 in0.0 mm
12:20 AM 69.3°F20.7°C 67.8°F19.9°C 95% Calm Calm -- 29.77 in1008.1 mb 0.00 in0.0 mm 0.00 in0.0 mm 0.00 in0.0 mm
12:10 AM 69.4°F20.8°C 67.7°F19.8°C 94% Calm Calm -- 29.77 in1008.1 mb 0.00 in0.0 mm 0.00 in0.0 mm 0.00 in0.0 mm
12:00 AM 69.4°F20.8°C 67.7°F19.8°C 94% Calm Calm -- 29.77 in1008.1 mb 0.00 in0.0 mm 0.00 in0.0 mm 0.00 in0.0 mm